Siloam Springs, AR

12:23 CDT je la 31an de julio 2015 (GMT -0500)
Lake Forrest Heights | | Change Station
CLOSE
Current Station
Personaj Veter-Stacioj
Location: Siloam Springs, AR
Alteco: 1148 ft
Najbaraj veter-stacioj

Elev 1148 ft 36.22 °N, 94.54 °W | Updated 8 minutes ago

Scattered Clouds
Malpliparte nuba
79.7 °F
Sentas kiel 83 °F
N
0.7
Vento Varianta Vento from SOk
Gusts 2.2 mej/h

hodiaŭ
High -- | Low -- °F
--% Ebla precip.
hieraŭ
High -- | Low -- °F
Precip. -- co
6:24 AM 8:24 PM
Plenlumo, 100% visible
Aerpremo 30.19 co
Vidodistanco 10.0 mejloj
Nuboj Malpliparte nuba 12000 ft
Varmindico 83 °F
Rosopunkto 72 °F
Humido 76%
Pluvokvanto 0.00 co
Neĝprofundo Not available.
UV 9 out of 12
Pollen 4.70 out of 12
Aerkvalito Not available.
Flu Activity Not available.
METAR KSLG 311715Z AUTO 19006KT 10SM SCT120 27/16 A3019 RMK AO1

More Conditions Fewer Conditions

Aerpremo 30.19 co
Vidodistanco 10.0 mejloj
Nuboj Malpliparte nuba 12000 ft
Varmindico 83 °F
Rosopunkto 72 °F
Humido 76%
Pluvokvanto 0.00 co
Neĝprofundo Not available.
UV 9 out of 12
Pollen 4.70 out of 12
Aerkvalito Not available.
Flu Activity Not available.
METAR KSLG 311715Z AUTO 19006KT 10SM SCT120 27/16 A3019 RMK AO1

More Conditions Fewer Conditions

Nowcast | as of 12:18 PM CDT on July 31, 2015

At 12:18 PM...Doppler radar detected scattered showers over far eastern Oklahoma. Weakening showers over central Oklahoma were also indicated near the Pittsburg and Pushmataha County lines. All of this activity was moving off to the southeast. Through 3:00 PM...occasional showers and isolated thunderstorms will be possible across mainly eastern Oklahoma...however some of the activity may briefly skirt far western counties in northwest Arkansas. The bulk of this activity will consist of light to occasional moderate showers...with hourly rainfall rates of up to one tenth of an inch common. Locally higher amounts to one half inch are possible in heavier downpours...with amounts to one inch possible where thunderstorms occur. Gusty winds to 40 mph are also possible in heavy downpours and any thunderstorms.

×

10-Day Weather Forecast

×

Almanac

Astronomio

Jul. 31, 2015 Leviĝo Subiro
Aktuala tempo
Civila krepusko
Naŭtika krepusko
Astronomia krepusko
Luno
Daŭro de videbla lumo
Daŭro de tago
Tomorrow will be .
, % of the Moon is Illuminated

Hodiaŭaj ekstremaĵoj

State Highs State Lows

Community

WunderPhotos

Upload Photos

1,842,697 photos uploaded!

WunderBlogs® & News

Nearby

Aerkvalito

  Aerkvalito Aerkvalita indico Poluanto
Not available.

Neĝa profundeco

Station Depth Alteco

Earthquake Activity

Urbo Distance Mag. Time & Date
Minimum magnitude displayed is 2.5.

Coastal Water Temperatures

Loko Temperaturo

Stations

Najbaraj veter-stacioj

Loko de stacio Temp Venta
kvazaŭtemperaturo
Rosopunkto Humido Vento Precip. Elev Ĝisdatigita je Tipo